createdAt,value
2023-10-02T00:02:02.063Z,54.67
2023-10-02T00:04:35.882Z,54.71
2023-10-02T00:07:09.774Z,54.97
2023-10-02T00:09:38.011Z,54.95
2023-10-02T00:12:12.718Z,55.07
2023-10-02T00:14:41.891Z,55.08
2023-10-02T00:17:15.553Z,55.30
2023-10-02T00:19:45.306Z,55.13
2023-10-02T00:22:34.997Z,55.10
2023-10-02T00:25:03.500Z,55.21
2023-10-02T00:27:31.335Z,55.27
2023-10-02T00:30:00.326Z,55.64
2023-10-02T00:32:30.757Z,55.55
2023-10-02T00:35:00.165Z,55.64
2023-10-02T00:37:45.007Z,55.98
2023-10-02T00:40:15.950Z,55.74
2023-10-02T00:42:46.695Z,56.12
2023-10-02T00:45:14.644Z,55.99
2023-10-02T00:47:44.199Z,55.95
2023-10-02T00:50:14.414Z,56.13
2023-10-02T00:52:43.928Z,56.09
2023-10-02T00:55:13.770Z,56.50
2023-10-02T00:57:42.319Z,56.66
2023-10-02T01:00:18.880Z,56.54
2023-10-02T01:02:51.513Z,56.82
2023-10-02T01:05:23.321Z,56.77
2023-10-02T01:07:55.904Z,56.68
2023-10-02T01:10:24.515Z,56.91
2023-10-02T01:12:54.396Z,57.10
2023-10-02T01:15:48.714Z,56.96
2023-10-02T01:18:24.066Z,57.24
2023-10-02T01:20:54.783Z,57.02
2023-10-02T01:23:26.420Z,57.09
2023-10-02T01:25:58.604Z,57.25
2023-10-02T01:28:27.687Z,56.99
2023-10-02T01:30:56.483Z,57.08
2023-10-02T01:33:27.671Z,57.44
2023-10-02T01:35:58.036Z,57.54
2023-10-02T01:38:30.574Z,57.47
2023-10-02T01:41:07.803Z,57.45
2023-10-02T01:43:40.426Z,57.57
2023-10-02T01:46:09.022Z,57.45
2023-10-02T01:48:41.606Z,57.18
2023-10-02T01:51:33.383Z,57.77
2023-10-02T01:54:04.387Z,57.76
2023-10-02T01:56:35.943Z,57.78
2023-10-02T01:59:11.366Z,57.85
2023-10-02T02:01:53.198Z,57.62
2023-10-02T02:04:21.993Z,57.55
2023-10-02T02:06:56.327Z,57.72
2023-10-02T02:09:25.359Z,57.91
2023-10-02T02:12:15.601Z,58.30
2023-10-02T02:14:51.603Z,58.15
2023-10-02T02:17:21.608Z,58.23
2023-10-02T02:19:51.215Z,58.02
2023-10-02T02:22:19.336Z,58.21
2023-10-02T02:24:47.579Z,58.26
2023-10-02T02:27:18.614Z,58.48
2023-10-02T02:29:47.340Z,58.07
2023-10-02T02:32:20.698Z,58.12
2023-10-02T02:34:49.356Z,58.45
2023-10-02T02:37:18.012Z,58.45
2023-10-02T02:39:46.686Z,58.36
2023-10-02T02:42:23.558Z,58.32
2023-10-02T02:44:52.099Z,58.44
2023-10-02T02:47:22.985Z,58.60
2023-10-02T02:49:52.582Z,58.41
2023-10-02T02:52:22.600Z,58.89
2023-10-02T02:54:59.938Z,58.54
2023-10-02T02:57:29.593Z,58.80
2023-10-02T03:00:19.382Z,58.61
2023-10-02T03:02:47.744Z,58.62
2023-10-02T03:05:17.341Z,58.68
2023-10-02T03:07:45.720Z,58.54
2023-10-02T03:10:13.890Z,58.78
2023-10-02T03:12:47.194Z,58.59
2023-10-02T03:15:16.173Z,58.88
2023-10-02T03:17:44.130Z,58.75
2023-10-02T03:20:23.809Z,59.08
2023-10-02T03:22:55.716Z,58.80
2023-10-02T03:25:29.284Z,58.94
2023-10-02T03:27:58.794Z,58.83
2023-10-02T03:30:40.278Z,58.88
2023-10-02T03:33:19.960Z,59.00
2023-10-02T03:35:59.745Z,58.88
2023-10-02T03:38:27.865Z,58.92
2023-10-02T03:40:56.889Z,59.04
2023-10-02T03:43:36.928Z,59.02
2023-10-02T03:46:07.886Z,59.13
2023-10-02T03:48:36.392Z,59.09
2023-10-02T03:51:05.656Z,59.04
2023-10-02T03:56:22.390Z,59.16
2023-10-02T03:58:52.001Z,59.26
2023-10-02T04:01:28.886Z,59.11
2023-10-02T04:04:11.620Z,59.13
2023-10-02T04:06:39.434Z,59.36
2023-10-02T04:09:19.825Z,59.54
2023-10-02T04:11:47.590Z,59.14
2023-10-02T04:14:26.551Z,59.27
2023-10-02T04:16:53.760Z,59.36
2023-10-02T04:19:24.513Z,59.53
2023-10-02T04:21:52.842Z,59.49
2023-10-02T04:24:24.962Z,59.38
2023-10-02T04:26:55.421Z,59.83
2023-10-02T04:29:31.129Z,59.29
2023-10-02T04:32:15.458Z,59.38
2023-10-02T04:34:51.711Z,59.61
2023-10-02T04:37:21.919Z,59.37
2023-10-02T04:40:14.894Z,59.53
2023-10-02T04:43:10.586Z,59.50
2023-10-02T04:45:39.942Z,59.76
2023-10-02T04:48:11.493Z,59.62
2023-10-02T04:50:46.515Z,59.69
2023-10-02T04:53:32.003Z,59.75
2023-10-02T04:56:15.223Z,59.44
2023-10-02T04:58:49.233Z,59.34
2023-10-02T05:01:36.200Z,59.68
2023-10-02T05:04:04.774Z,59.50
2023-10-02T05:06:45.646Z,59.49
2023-10-02T05:09:21.930Z,59.75
2023-10-02T05:11:57.323Z,59.62
2023-10-02T05:14:27.952Z,59.38
2023-10-02T05:17:17.854Z,59.75
2023-10-02T05:19:58.166Z,59.73
2023-10-02T05:22:28.919Z,59.60
2023-10-02T05:25:05.529Z,59.77
2023-10-02T05:27:33.475Z,59.85
2023-10-02T05:30:03.161Z,59.95
2023-10-02T05:32:36.356Z,59.91
2023-10-02T05:35:19.640Z,59.79
2023-10-02T05:37:52.845Z,59.78
2023-10-02T05:40:45.871Z,59.82
2023-10-02T05:43:18.990Z,59.56
2023-10-02T05:45:54.012Z,60.09
2023-10-02T05:50:58.716Z,59.75
2023-10-02T05:53:28.212Z,59.85
2023-10-02T05:56:13.691Z,59.79
2023-10-02T05:58:44.227Z,59.99
2023-10-02T06:01:25.193Z,60.07
2023-10-02T06:03:59.490Z,59.93
2023-10-02T06:06:30.095Z,59.36
2023-10-02T06:09:02.371Z,59.36
2023-10-02T06:11:33.466Z,59.74
2023-10-02T06:14:10.708Z,59.25
2023-10-02T06:16:40.660Z,59.13
2023-10-02T06:19:14.193Z,59.09
2023-10-02T06:22:05.595Z,58.81
2023-10-02T06:24:33.722Z,58.42
2023-10-02T06:27:05.906Z,58.73
2023-10-02T06:29:36.496Z,58.83
2023-10-02T06:32:06.611Z,58.75
2023-10-02T06:34:41.693Z,58.50
2023-10-02T06:37:13.460Z,58.59
2023-10-02T06:39:42.739Z,58.66
2023-10-02T06:42:10.902Z,58.49
2023-10-02T06:44:44.063Z,57.94
2023-10-02T06:47:14.632Z,58.10
2023-10-02T06:49:45.190Z,57.95
2023-10-02T06:52:17.101Z,58.11
2023-10-02T06:54:45.803Z,58.04
2023-10-02T06:57:14.884Z,58.00
2023-10-02T06:59:52.417Z,56.31
2023-10-02T07:02:26.515Z,56.08
2023-10-02T07:04:56.620Z,54.78
2023-10-02T07:07:31.352Z,53.54
2023-10-02T07:10:08.683Z,53.09
2023-10-02T07:12:40.894Z,51.56
2023-10-02T07:15:21.702Z,50.51
2023-10-02T07:18:03.350Z,47.81
2023-10-02T07:20:44.953Z,46.70
2023-10-02T07:23:20.617Z,46.50
2023-10-02T07:25:51.961Z,46.89
2023-10-02T07:28:22.033Z,46.01
2023-10-02T07:30:51.657Z,45.55
2023-10-02T07:33:20.660Z,44.64
2023-10-02T07:35:57.548Z,44.61
2023-10-02T07:38:31.356Z,42.93
2023-10-02T07:41:08.042Z,42.69
2023-10-02T07:43:36.188Z,41.44
2023-10-02T07:46:16.081Z,41.24
2023-10-02T07:48:57.091Z,41.47
2023-10-02T07:51:31.961Z,39.65
2023-10-02T07:54:02.162Z,38.10
2023-10-02T07:56:30.403Z,37.29
2023-10-02T07:59:02.753Z,36.34
2023-10-02T08:01:34.690Z,37.01
2023-10-02T08:04:03.400Z,35.79
2023-10-02T08:06:38.092Z,34.80
2023-10-02T08:09:37.957Z,33.87
2023-10-02T08:12:09.630Z,32.50
2023-10-02T08:14:43.329Z,32.75
2023-10-02T08:17:24.493Z,31.85
2023-10-02T08:19:57.730Z,31.03
2023-10-02T08:22:26.121Z,30.36
2023-10-02T08:25:03.335Z,30.19
2023-10-02T08:27:33.273Z,29.48
2023-10-02T08:30:02.596Z,28.19
2023-10-02T08:32:31.795Z,26.63
2023-10-02T08:35:13.304Z,26.42
2023-10-02T08:37:41.291Z,25.72
2023-10-02T08:40:16.487Z,25.39
2023-10-02T08:42:48.151Z,25.31
2023-10-02T08:45:21.658Z,24.44
2023-10-02T08:47:49.889Z,23.92
2023-10-02T08:50:18.411Z,23.21
2023-10-02T08:52:51.424Z,22.74
2023-10-02T08:55:53.175Z,22.51
2023-10-02T08:58:23.405Z,22.97
2023-10-02T09:01:07.760Z,21.75
2023-10-02T09:03:42.779Z,21.38
2023-10-02T09:06:28.583Z,21.41
2023-10-02T09:09:16.447Z,21.23
2023-10-02T09:11:45.943Z,21.34
2023-10-02T09:14:23.335Z,20.64
2023-10-02T09:17:14.076Z,20.70
2023-10-02T09:19:49.831Z,19.56
2023-10-02T09:22:19.021Z,19.55
2023-10-02T09:24:59.036Z,18.20
2023-10-02T09:27:29.521Z,18.11
2023-10-02T09:30:15.662Z,18.62
2023-10-02T09:33:10.318Z,19.19
2023-10-02T09:36:36.595Z,17.42
2023-10-02T09:38:34.063Z,18.08
2023-10-02T09:41:16.982Z,18.37
2023-10-02T09:43:53.996Z,17.94
2023-10-02T09:46:44.116Z,17.79
2023-10-02T09:49:21.171Z,17.70
2023-10-02T09:52:13.776Z,17.49
2023-10-02T09:55:13.865Z,16.39
2023-10-02T09:57:57.783Z,17.32
2023-10-02T10:00:38.726Z,17.18
2023-10-02T10:03:34.573Z,17.18
2023-10-02T10:06:31.331Z,15.88
2023-10-02T10:09:26.780Z,15.48
2023-10-02T10:12:10.280Z,16.24
2023-10-02T10:14:38.766Z,16.42
2023-10-02T10:17:14.450Z,14.61
2023-10-02T10:19:47.623Z,15.26
2023-10-02T10:22:36.284Z,14.95
2023-10-02T10:25:20.323Z,15.03
2023-10-02T10:28:07.189Z,15.87
2023-10-02T10:31:01.984Z,15.24
2023-10-02T10:33:47.825Z,16.62
2023-10-02T10:36:37.768Z,15.73
2023-10-02T10:39:44.273Z,16.34
2023-10-02T10:42:25.587Z,16.76
2023-10-02T10:44:53.619Z,16.78
2023-10-02T10:47:25.293Z,16.26
2023-10-02T10:50:11.525Z,14.95
2023-10-02T10:52:40.585Z,14.96
2023-10-02T10:55:34.553Z,14.67
2023-10-02T11:00:53.240Z,14.21
2023-10-02T11:03:28.023Z,14.21
2023-10-02T11:06:03.793Z,14.48
2023-10-02T11:08:32.503Z,14.80
2023-10-02T11:11:02.905Z,14.64
2023-10-02T11:13:31.620Z,14.30
2023-10-02T11:16:09.291Z,13.72
2023-10-02T11:22:26.300Z,12.95
2023-10-02T11:25:20.448Z,12.22
2023-10-02T11:27:59.384Z,12.11
2023-10-02T11:30:33.379Z,11.88
2023-10-02T11:33:01.629Z,11.90
2023-10-02T11:35:31.316Z,12.83
2023-10-02T11:38:02.526Z,11.94
2023-10-02T11:40:30.753Z,11.13
2023-10-02T11:43:01.262Z,11.74
2023-10-02T11:45:31.204Z,10.98
2023-10-02T11:48:00.439Z,10.80
2023-10-02T11:50:28.624Z,11.25
2023-10-02T12:03:44.825Z,14.11
2023-10-02T12:07:39.541Z,13.75
2023-10-02T12:13:27.966Z,18.06
2023-10-02T12:16:24.454Z,18.54
2023-10-02T12:18:55.655Z,20.49
2023-10-02T12:21:26.345Z,20.93
2023-10-02T12:23:56.612Z,21.47
2023-10-02T12:32:52.683Z,23.80
2023-10-02T12:35:22.092Z,24.70
2023-10-02T12:37:51.711Z,25.45
2023-10-02T12:40:22.162Z,25.79
2023-10-02T12:42:54.691Z,26.21
2023-10-02T12:45:24.283Z,26.82
2023-10-02T12:47:56.580Z,26.84
2023-10-02T12:50:26.204Z,27.00
2023-10-02T12:52:55.855Z,27.30
2023-10-02T12:55:24.602Z,27.51
2023-10-02T12:57:52.699Z,28.58
2023-10-02T13:00:21.781Z,27.97
2023-10-02T13:02:51.303Z,27.92
2023-10-02T13:05:21.465Z,28.31
2023-10-02T13:07:52.092Z,28.88
2023-10-02T13:10:20.211Z,29.33
2023-10-02T13:12:48.777Z,29.13
2023-10-02T13:15:16.676Z,29.35
2023-10-02T13:17:45.178Z,29.54
2023-10-02T14:07:00.953Z,31.84
2023-10-02T14:09:28.738Z,32.39
2023-10-02T14:11:56.887Z,32.15
2023-10-02T14:14:26.825Z,32.66
2023-10-02T14:16:55.077Z,32.79
2023-10-02T14:19:24.744Z,32.82
2023-10-02T14:21:54.326Z,32.69
2023-10-02T14:24:23.690Z,33.35
2023-10-02T14:26:51.505Z,33.77
2023-10-02T14:29:19.432Z,33.60
2023-10-02T14:31:48.532Z,34.02
2023-10-02T14:34:16.540Z,34.53
2023-10-02T14:36:45.153Z,34.61
2023-10-02T14:39:16.806Z,34.82
2023-10-02T14:41:45.995Z,34.46
2023-10-02T14:44:14.485Z,34.77
2023-10-02T14:46:44.369Z,35.35
2023-10-02T14:49:12.649Z,35.50
2023-10-02T14:51:41.231Z,35.71
2023-10-02T14:54:10.006Z,35.39
2023-10-02T14:56:38.225Z,35.96
2023-10-02T14:59:07.676Z,36.45
2023-10-02T15:01:36.080Z,36.74
2023-10-02T15:04:04.381Z,36.91
2023-10-02T15:06:34.232Z,36.66
2023-10-02T15:09:04.285Z,37.10
2023-10-02T15:11:32.610Z,37.07
2023-10-02T15:14:00.860Z,37.28
2023-10-02T15:16:30.185Z,37.58
2023-10-02T15:18:58.017Z,37.07
2023-10-02T15:21:25.944Z,37.83
2023-10-02T15:23:59.438Z,37.76
2023-10-02T15:26:27.494Z,38.00
2023-10-02T15:28:55.478Z,37.84
2023-10-02T15:31:24.339Z,38.32
2023-10-02T15:33:56.188Z,38.29
2023-10-02T15:36:24.553Z,38.83
2023-10-02T15:38:52.544Z,38.78
2023-10-02T15:41:30.939Z,39.00
2023-10-02T15:44:01.807Z,38.45
2023-10-02T15:46:29.787Z,38.91
2023-10-02T15:48:59.233Z,39.19
2023-10-02T15:51:27.314Z,39.15
2023-10-02T15:53:56.851Z,39.48
2023-10-02T15:56:26.004Z,38.98
2023-10-02T15:58:54.227Z,39.21
2023-10-02T16:01:22.441Z,39.57
2023-10-02T16:03:51.712Z,39.56
2023-10-02T16:06:24.149Z,40.28
2023-10-02T16:08:53.791Z,40.21
2023-10-02T16:11:22.320Z,40.12
2023-10-02T16:13:51.376Z,40.06
2023-10-02T16:16:19.648Z,40.29
2023-10-02T16:18:47.885Z,40.32
2023-10-02T16:21:18.204Z,40.40
2023-10-02T16:23:47.343Z,40.12
2023-10-02T16:26:15.992Z,40.99
2023-10-02T16:28:47.342Z,41.10
2023-10-02T16:31:18.429Z,40.92
2023-10-02T16:33:48.388Z,40.95
2023-10-02T16:36:20.284Z,41.13
2023-10-02T16:39:07.682Z,41.40
2023-10-02T16:41:37.791Z,41.16
2023-10-02T16:44:06.856Z,41.27
2023-10-02T16:46:34.754Z,41.88
2023-10-02T16:49:02.894Z,41.67
2023-10-02T16:51:30.834Z,41.96
2023-10-02T16:54:00.103Z,41.45
2023-10-02T16:56:27.937Z,41.60
2023-10-02T16:58:56.876Z,42.13
2023-10-02T17:01:24.648Z,41.91
2023-10-02T17:03:52.913Z,41.99
2023-10-02T17:06:21.052Z,42.40
2023-10-02T17:08:49.394Z,42.45
2023-10-02T17:11:18.906Z,42.56
2023-10-02T17:13:47.874Z,42.25
2023-10-02T17:16:16.950Z,43.01
2023-10-02T17:18:44.797Z,42.93
2023-10-02T17:21:16.872Z,43.00
2023-10-02T17:23:45.284Z,42.68
2023-10-02T17:26:20.619Z,42.71
2023-10-02T17:59:04.995Z,41.89
2023-10-02T18:10:20.710Z,41.44
2023-10-02T18:14:08.992Z,41.02
2023-10-02T18:23:30.153Z,40.87
2023-10-02T18:26:08.958Z,41.05
2023-10-02T18:28:37.577Z,41.06
2023-10-02T18:32:28.575Z,40.81
2023-10-02T18:50:08.474Z,42.32
2023-10-02T18:55:50.743Z,42.89
2023-10-02T18:59:16.612Z,42.75
2023-10-02T19:09:19.180Z,43.82
2023-10-02T19:11:47.815Z,43.56
2023-10-02T19:14:39.400Z,44.04
2023-10-02T19:17:07.369Z,43.85
2023-10-02T19:19:35.384Z,44.22
2023-10-02T19:22:03.594Z,44.14
2023-10-02T19:24:33.270Z,44.43
2023-10-02T19:27:01.053Z,44.71
2023-10-02T19:29:31.039Z,44.62
2023-10-02T19:31:58.922Z,45.31
2023-10-02T19:34:27.027Z,45.12
2023-10-02T19:36:55.076Z,45.29
2023-10-02T19:39:22.962Z,45.33
2023-10-02T19:41:53.335Z,45.69
2023-10-02T19:44:21.077Z,46.02
2023-10-02T19:46:49.513Z,45.78
2023-10-02T19:49:17.567Z,45.82
2023-10-02T19:51:46.157Z,45.94
2023-10-02T19:54:14.047Z,46.15
2023-10-02T19:56:43.411Z,46.28
2023-10-02T19:59:13.992Z,46.03
2023-10-02T20:01:43.535Z,46.18
2023-10-02T20:04:11.442Z,45.94
2023-10-02T20:06:39.433Z,45.93
2023-10-02T20:09:07.713Z,46.34
2023-10-02T20:11:35.736Z,46.37
2023-10-02T20:14:06.150Z,46.10
2023-10-02T20:16:44.621Z,46.32
2023-10-02T20:19:15.423Z,46.05
2023-10-02T20:21:45.825Z,46.39
2023-10-02T20:24:45.908Z,46.31
2023-10-02T20:27:21.960Z,46.15
2023-10-02T20:31:16.873Z,46.74
2023-10-02T20:33:34.945Z,46.83
2023-10-02T20:37:01.497Z,46.86
2023-10-02T20:39:56.302Z,46.65
2023-10-02T20:45:54.219Z,46.85
2023-10-02T20:51:37.446Z,46.90
2023-10-02T20:55:18.940Z,47.10
2023-10-02T20:57:26.488Z,47.26
2023-10-02T21:00:02.577Z,46.97
2023-10-02T21:03:33.180Z,47.24
2023-10-02T21:06:24.751Z,47.38
2023-10-02T21:09:03.510Z,47.62
2023-10-02T21:11:41.758Z,47.25
2023-10-02T21:14:12.510Z,47.40
2023-10-02T21:16:43.671Z,47.38
2023-10-02T21:19:25.655Z,47.33
2023-10-02T21:21:56.010Z,47.52
2023-10-02T21:24:42.095Z,47.69
2023-10-02T21:27:19.710Z,47.48
2023-10-02T21:30:20.241Z,47.98
2023-10-02T21:32:51.042Z,47.93
2023-10-02T21:35:38.712Z,47.73
2023-10-02T21:38:23.933Z,47.62
2023-10-02T21:40:54.034Z,47.73
2023-10-02T21:43:32.295Z,47.73
2023-10-02T21:46:17.198Z,48.13
2023-10-02T21:49:30.453Z,47.95
2023-10-02T21:52:17.640Z,48.00
2023-10-02T21:54:58.723Z,48.16
2023-10-02T21:57:41.478Z,48.27
2023-10-02T22:00:36.946Z,48.08
2023-10-02T22:03:33.404Z,47.86
2023-10-02T22:06:20.976Z,48.03
2023-10-02T22:09:06.755Z,47.80
2023-10-02T22:11:42.296Z,48.29
2023-10-02T22:14:28.433Z,48.12
2023-10-02T22:17:17.561Z,47.71
2023-10-02T22:20:00.433Z,47.70
2023-10-02T22:22:56.274Z,47.72
2023-10-02T22:25:24.746Z,47.55
2023-10-02T22:27:52.802Z,47.68
2023-10-02T22:30:22.939Z,47.54
2023-10-02T22:32:51.568Z,47.57
2023-10-02T22:35:22.394Z,47.55
2023-10-02T22:37:51.278Z,47.71
2023-10-02T22:40:22.445Z,47.93
2023-10-02T22:42:56.735Z,47.61
2023-10-02T22:45:27.037Z,47.63
2023-10-02T22:47:56.666Z,47.75
2023-10-02T22:50:25.908Z,47.88
2023-10-02T22:52:53.784Z,47.60
2023-10-02T22:55:23.240Z,47.93
2023-10-02T22:57:52.252Z,47.89
2023-10-02T23:00:23.493Z,47.79
2023-10-02T23:02:59.531Z,47.85
2023-10-02T23:05:30.172Z,48.41
2023-10-02T23:07:58.639Z,48.34
2023-10-02T23:10:26.935Z,47.79
2023-10-02T23:13:20.153Z,48.09
2023-10-02T23:20:09.762Z,48.35
2023-10-02T23:23:18.866Z,48.38
2023-10-02T23:25:57.851Z,48.32
2023-10-02T23:29:17.816Z,47.79
2023-10-02T23:31:46.044Z,48.57
2023-10-02T23:35:27.170Z,48.06
2023-10-02T23:38:09.247Z,48.12
2023-10-02T23:41:26.408Z,48.07
2023-10-02T23:44:18.849Z,47.95
2023-10-02T23:47:01.413Z,48.44
2023-10-02T23:49:36.862Z,48.31
2023-10-02T23:52:17.239Z,48.41
2023-10-02T23:55:00.647Z,48.13
2023-10-02T23:57:33.618Z,48.46
